CheckWX is a tool to help pilots better visualize weather data.  It is not intended as a substitute for an official pre-flight weather briefing.

05:25:14 UTC

CYTE METAR
Cape Dorset Airport
Cape Dorset, Canada
Current

18 mins ago

CYTE 200507Z AUTO 27008KT 2 1/4SM HZ OVC006 M28/M31 A2973 RMK SLP076
Observed
Feb-20 @ 05:07 UTC
Wind
  • 270° at 8 KTS
Visibility
3,621 meters
Flight Rules
IFR
Conditions
Haze
Cloud Levels
  • Overcast at 600' AGL
Temperature
-28°C / -18°F
Dewpoint
-31°C / -24°F
Humidity
75%
Altimeter
29.73" Hg
Pressure
1007.6 hPa
Previous

56 mins ago

CYTE 200429Z AUTO 26006KT 1 3/4SM HZ BKN006 BKN009 M28/M31 A2973 RMK SLP077
Observed
Feb-20 @ 04:29 UTC
Wind
  • 260° at 6 KTS
Visibility
2,816 meters
Flight Rules
IFR
Conditions
Haze
Cloud Levels
  • Broken at 600' AGL
  • Broken at 900' AGL
Temperature
-28°C / -18°F
Dewpoint
-31°C / -24°F
Humidity
75%
Altimeter
29.73" Hg
Pressure
1007.7 hPa
Previous

1 hour ago

CYTE 200413Z AUTO 26005KT 2SM HZ SCT006 BKN009 M28/M31 A2973 RMK SLP076
Observed
Feb-20 @ 04:13 UTC
Wind
  • 260° at 5 KTS
Visibility
3,219 meters
Flight Rules
IFR
Conditions
Haze
Cloud Levels
  • Scattered at 600' AGL
  • Broken at 900' AGL
Temperature
-28°C / -18°F
Dewpoint
-31°C / -24°F
Humidity
75%
Altimeter
29.73" Hg
Pressure
1007.6 hPa